Atlanta, Georgia
Traffic Map
Current Weather Conditions
Atlanta, Georgia
Broken Clouds
Broken Clouds
31°
Feels Like: 32°
Wind Chill: 31° Ceiling: 20000
Heat Index: 32° Visibility: 10mi
Dew Point: 18° Wind: 6mph
Humidity: 46% Direction: 340° (NNW)
Pressure: 29.99in Gusts: 0mph
Raw Report DataKATL 042252Z 34005KT 10SM FEW045 SCT120 BKN200 BKN250 31/18 A2999 RMK AO2 RAE03 SLP144 CB DSNT NE & SE P0000 T03110183
Traffic Incident Summary
Active as of:
Severity:
Category:
InformationThere was an issue retrieving the traffic information for this location. Please try a different location or try again shortly.
Advertisements
Track Severe Weather on mobile